createdAt,value
2024-02-13T00:01:42.215Z,6.38
2024-02-13T00:04:11.543Z,6.85
2024-02-13T00:06:39.697Z,6.88
2024-02-13T00:09:07.758Z,6.60
2024-02-13T00:11:36.224Z,7.55
2024-02-13T00:14:04.219Z,7.10
2024-02-13T00:16:32.363Z,7.13
2024-02-13T00:19:02.464Z,6.97
2024-02-13T00:21:30.830Z,7.53
2024-02-13T00:23:58.889Z,6.90
2024-02-13T00:26:27.567Z,7.80
2024-02-13T00:28:55.447Z,7.53
2024-02-13T00:31:23.720Z,7.57
2024-02-13T00:33:53.217Z,7.57
2024-02-13T00:36:23.508Z,7.65
2024-02-13T00:38:51.460Z,6.68
2024-02-13T00:41:20.021Z,7.47
2024-02-13T00:43:47.822Z,7.75
2024-02-13T00:46:15.673Z,8.20
2024-02-13T00:48:43.693Z,7.72
2024-02-13T00:51:12.184Z,7.03
2024-02-13T00:53:41.594Z,7.93
2024-02-13T00:56:09.612Z,9.68
2024-02-13T00:58:38.426Z,7.93
2024-02-13T01:01:06.539Z,8.57
2024-02-13T01:03:35.698Z,8.18
2024-02-13T01:06:04.627Z,9.60
2024-02-13T01:08:34.445Z,9.50
2024-02-13T01:11:04.273Z,8.70
2024-02-13T01:13:33.268Z,8.30
2024-02-13T01:16:04.454Z,7.63
2024-02-13T01:18:32.486Z,8.15
2024-02-13T01:21:00.745Z,8.20
2024-02-13T01:23:28.609Z,9.85
2024-02-13T01:25:57.900Z,8.50
2024-02-13T01:28:27.075Z,8.90
2024-02-13T01:30:55.464Z,8.02
2024-02-13T01:33:23.609Z,8.00
2024-02-13T01:35:52.131Z,8.35
2024-02-13T01:38:21.420Z,7.15
2024-02-13T01:40:49.389Z,8.10
2024-02-13T01:43:17.233Z,9.07
2024-02-13T01:45:49.285Z,8.95
2024-02-13T01:48:19.223Z,9.07
2024-02-13T01:50:48.329Z,9.18
2024-02-13T01:53:16.752Z,9.10
2024-02-13T01:55:45.277Z,9.25
2024-02-13T01:58:14.195Z,9.95
2024-02-13T02:00:43.254Z,9.73
2024-02-13T02:03:16.773Z,10.23
2024-02-13T02:05:45.184Z,9.95
2024-02-13T02:08:15.412Z,9.55
2024-02-13T02:10:45.671Z,9.90
2024-02-13T02:13:15.824Z,9.82
2024-02-13T02:15:44.087Z,10.38
2024-02-13T02:18:14.386Z,10.27
2024-02-13T02:20:42.465Z,10.13
2024-02-13T02:23:10.440Z,11.48
2024-02-13T02:25:40.014Z,12.38
2024-02-13T02:28:08.445Z,11.95
2024-02-13T02:30:36.263Z,13.95
2024-02-13T02:33:04.987Z,12.45
2024-02-13T02:35:32.999Z,14.00
2024-02-13T02:38:01.297Z,13.55
2024-02-13T02:40:29.262Z,11.90
2024-02-13T02:43:00.781Z,12.45
2024-02-13T02:45:28.944Z,12.55
2024-02-13T02:47:58.151Z,12.30
2024-02-13T02:50:26.618Z,11.23
2024-02-13T02:52:54.668Z,11.45
2024-02-13T02:55:23.343Z,11.15
2024-02-13T02:57:52.165Z,11.60
2024-02-13T03:00:23.317Z,10.35
2024-02-13T03:02:51.663Z,11.60
2024-02-13T03:05:19.983Z,12.10
2024-02-13T03:07:48.181Z,12.20
2024-02-13T03:10:16.097Z,12.90
2024-02-13T03:12:45.093Z,11.93
2024-02-13T03:15:13.697Z,11.48
2024-02-13T03:17:43.927Z,13.80
2024-02-13T03:20:14.043Z,13.18
2024-02-13T03:22:43.161Z,14.00
2024-02-13T03:25:11.622Z,13.13
2024-02-13T03:27:39.662Z,14.32
2024-02-13T03:30:11.580Z,15.15
2024-02-13T03:32:39.631Z,15.45
2024-02-13T03:35:09.666Z,15.18
2024-02-13T03:37:37.574Z,15.57
2024-02-13T03:40:09.936Z,15.55
2024-02-13T03:42:38.366Z,14.93
2024-02-13T03:45:06.629Z,15.57
2024-02-13T03:47:35.616Z,15.63
2024-02-13T03:50:03.722Z,15.90
2024-02-13T03:52:35.105Z,14.88
2024-02-13T03:55:04.229Z,16.45
2024-02-13T03:57:32.564Z,16.90
2024-02-13T04:00:00.861Z,16.05
2024-02-13T04:02:29.470Z,14.55
2024-02-13T04:04:57.328Z,14.40
2024-02-13T04:07:25.298Z,16.88
2024-02-13T04:09:54.504Z,17.55
2024-02-13T04:12:22.684Z,18.48
2024-02-13T04:14:51.214Z,18.60
2024-02-13T04:17:19.705Z,16.80
2024-02-13T04:19:47.897Z,16.77
2024-02-13T04:22:15.773Z,18.25
2024-02-13T04:24:43.635Z,16.58
2024-02-13T04:27:12.862Z,16.90
2024-02-13T04:29:43.958Z,16.95
2024-02-13T04:32:13.829Z,17.00
2024-02-13T04:34:43.216Z,17.83
2024-02-13T04:37:11.322Z,18.70
2024-02-13T04:39:39.540Z,16.98
2024-02-13T04:42:08.032Z,14.63
2024-02-13T04:44:37.801Z,17.52
2024-02-13T04:47:07.078Z,15.48
2024-02-13T04:49:35.162Z,15.75
2024-02-13T04:52:02.998Z,15.10
2024-02-13T04:54:31.875Z,15.48
2024-02-13T04:57:00.700Z,16.05
2024-02-13T04:59:36.297Z,16.02
2024-02-13T05:02:07.077Z,15.25
2024-02-13T05:04:52.589Z,15.20
2024-02-13T05:07:24.797Z,15.30
2024-02-13T05:09:54.175Z,15.55
2024-02-13T05:12:22.352Z,15.73
2024-02-13T05:14:50.266Z,14.32
2024-02-13T05:17:19.530Z,13.38
2024-02-13T05:19:50.186Z,14.25
2024-02-13T05:22:18.359Z,13.75
2024-02-13T05:24:46.957Z,14.00
2024-02-13T05:27:14.810Z,13.60
2024-02-13T05:29:43.052Z,13.60
2024-02-13T05:32:12.526Z,14.40
2024-02-13T05:34:42.667Z,13.38
2024-02-13T05:37:10.649Z,14.18
2024-02-13T05:39:38.485Z,14.73
2024-02-13T05:42:06.509Z,13.43
2024-02-13T05:44:35.128Z,15.13
2024-02-13T05:47:04.126Z,14.13
2024-02-13T05:49:34.152Z,12.98
2024-02-13T05:52:06.111Z,15.35
2024-02-13T05:54:34.885Z,13.23
2024-02-13T05:57:03.567Z,14.60
2024-02-13T05:59:33.000Z,14.18
2024-02-13T06:02:01.487Z,13.15
2024-02-13T06:04:33.965Z,13.20
2024-02-13T06:07:04.183Z,12.88
2024-02-13T06:09:32.412Z,13.43
2024-02-13T06:12:00.530Z,13.25
2024-02-13T06:14:28.691Z,12.18
2024-02-13T06:16:58.553Z,13.60
2024-02-13T06:19:27.103Z,12.93
2024-02-13T06:21:55.245Z,12.82
2024-02-13T06:24:25.078Z,11.77
2024-02-13T06:26:56.040Z,15.30
2024-02-13T06:29:25.683Z,12.48
2024-02-13T06:31:56.153Z,12.98
2024-02-13T06:34:24.508Z,11.73
2024-02-13T06:36:52.471Z,13.65
2024-02-13T06:39:22.417Z,13.40
2024-02-13T06:41:52.038Z,12.27
2024-02-13T06:44:23.524Z,11.68
2024-02-13T06:46:51.593Z,13.13
2024-02-13T06:49:19.548Z,12.35
2024-02-13T06:51:47.402Z,12.63
2024-02-13T06:54:15.250Z,12.82
2024-02-13T06:56:43.290Z,12.68
2024-02-13T06:59:12.671Z,12.48
2024-02-13T07:01:40.551Z,11.95
2024-02-13T07:04:08.508Z,12.68
2024-02-13T07:06:46.398Z,12.38
2024-02-13T07:09:24.092Z,12.40
2024-02-13T07:11:53.507Z,12.35
2024-02-13T07:14:25.637Z,12.60
2024-02-13T07:16:54.738Z,12.35
2024-02-13T07:19:23.287Z,12.05
2024-02-13T07:21:51.094Z,11.63
2024-02-13T07:24:19.011Z,10.80
2024-02-13T07:26:47.212Z,12.60
2024-02-13T07:29:16.797Z,13.10
2024-02-13T07:31:47.734Z,11.60
2024-02-13T07:34:15.794Z,12.45
2024-02-13T07:36:43.892Z,13.32
2024-02-13T07:39:12.191Z,12.27
2024-02-13T07:41:40.318Z,11.80
2024-02-13T07:44:08.193Z,13.02
2024-02-13T07:46:37.119Z,12.55
2024-02-13T07:49:06.424Z,12.32
2024-02-13T07:51:34.349Z,12.77
2024-02-13T07:54:02.282Z,15.25
2024-02-13T07:56:30.845Z,13.18
2024-02-13T07:58:59.337Z,11.82
2024-02-13T08:01:28.250Z,12.57
2024-02-13T08:03:56.418Z,12.68
2024-02-13T08:06:26.014Z,13.05
2024-02-13T08:08:54.386Z,11.77
2024-02-13T08:11:23.132Z,13.10
2024-02-13T08:13:51.185Z,13.70
2024-02-13T08:16:20.061Z,13.65
2024-02-13T08:18:51.378Z,12.65
2024-02-13T08:21:20.175Z,11.80
2024-02-13T08:23:49.603Z,14.25
2024-02-13T08:26:17.692Z,13.30
2024-02-13T08:28:46.273Z,13.38
2024-02-13T08:31:15.084Z,14.50
2024-02-13T08:33:45.626Z,14.35
2024-02-13T08:36:13.842Z,13.43
2024-02-13T08:38:44.634Z,12.55
2024-02-13T08:41:15.752Z,12.07
2024-02-13T08:43:44.450Z,13.77
2024-02-13T08:46:14.388Z,12.73
2024-02-13T08:48:42.491Z,13.73
2024-02-13T08:51:10.682Z,14.90
2024-02-13T08:53:39.264Z,14.45
2024-02-13T08:56:07.960Z,14.63
2024-02-13T08:58:37.242Z,13.88
2024-02-13T09:01:06.117Z,12.63
2024-02-13T09:03:35.093Z,14.20
2024-02-13T09:06:05.760Z,13.75
2024-02-13T09:08:34.861Z,13.85
2024-02-13T09:11:02.720Z,13.60
2024-02-13T09:13:31.058Z,12.68
2024-02-13T09:16:00.579Z,12.43
2024-02-13T09:18:28.629Z,13.88
2024-02-13T09:20:56.591Z,13.05
2024-02-13T09:23:28.839Z,12.38
2024-02-13T09:25:56.906Z,12.52
2024-02-13T09:28:24.778Z,12.57
2024-02-13T09:30:53.054Z,12.35
2024-02-13T09:33:24.537Z,12.90
2024-02-13T09:35:53.238Z,12.20
2024-02-13T09:38:21.209Z,10.20
2024-02-13T09:40:49.784Z,11.23
2024-02-13T09:43:19.251Z,11.55
2024-02-13T09:45:47.967Z,10.85
2024-02-13T09:48:22.416Z,10.48
2024-02-13T09:50:52.968Z,9.68
2024-02-13T09:53:25.930Z,9.48
2024-02-13T09:55:56.653Z,10.07
2024-02-13T09:58:24.774Z,10.95
2024-02-13T10:00:55.741Z,9.32
2024-02-13T10:03:25.514Z,8.73
2024-02-13T10:05:55.704Z,8.95
2024-02-13T10:08:29.097Z,9.65
2024-02-13T10:11:03.111Z,10.27
2024-02-13T10:13:36.416Z,8.48
2024-02-13T10:16:05.243Z,8.50
2024-02-13T10:18:34.769Z,8.30
2024-02-13T10:21:06.773Z,8.05
2024-02-13T10:23:36.308Z,8.18
2024-02-13T10:26:08.953Z,8.90
2024-02-13T10:28:36.891Z,7.82
2024-02-13T10:31:05.966Z,7.38
2024-02-13T10:33:42.152Z,7.22
2024-02-13T10:36:12.742Z,6.90
2024-02-13T10:38:41.724Z,7.18
2024-02-13T10:41:12.635Z,7.18
2024-02-13T10:43:43.669Z,5.95
2024-02-13T10:46:14.913Z,6.82
2024-02-13T10:48:53.131Z,6.90
2024-02-13T10:51:24.618Z,5.78
2024-02-13T10:53:52.605Z,6.15
2024-02-13T10:56:22.355Z,6.18
2024-02-13T10:58:53.020Z,5.65
2024-02-13T11:01:24.163Z,5.55
2024-02-13T11:03:54.873Z,5.78
2024-02-13T11:06:24.285Z,5.60
2024-02-13T11:08:52.755Z,5.97
2024-02-13T11:11:22.581Z,5.13
2024-02-13T11:13:50.988Z,5.75
2024-02-13T11:16:19.431Z,5.18
2024-02-13T11:18:50.267Z,4.63
2024-02-13T11:21:22.977Z,4.90
2024-02-13T11:24:01.109Z,4.68
2024-02-13T11:26:34.122Z,4.40
2024-02-13T11:29:12.147Z,3.70
2024-02-13T11:31:41.321Z,4.45
2024-02-13T11:34:11.439Z,3.53
2024-02-13T11:36:39.723Z,3.42
2024-02-13T11:39:09.579Z,3.40
2024-02-13T11:41:37.757Z,3.42
2024-02-13T11:44:08.894Z,3.30
2024-02-13T11:46:39.835Z,3.33
2024-02-13T11:49:11.068Z,3.95
2024-02-13T11:51:40.341Z,3.60
2024-02-13T11:54:10.637Z,3.00
2024-02-13T11:56:39.974Z,3.42
2024-02-13T11:59:08.687Z,2.97
2024-02-13T12:01:38.835Z,2.83
2024-02-13T12:04:13.083Z,2.80
2024-02-13T12:06:41.925Z,3.58
2024-02-13T12:09:11.928Z,2.53
2024-02-13T12:11:40.102Z,2.70
2024-02-13T12:14:10.255Z,2.72
2024-02-13T12:16:39.476Z,2.30
2024-02-13T12:19:09.453Z,3.05
2024-02-13T12:21:40.045Z,3.17
2024-02-13T12:24:10.860Z,2.75
2024-02-13T12:26:40.282Z,2.47
2024-02-13T12:29:16.424Z,2.60
2024-02-13T12:34:17.947Z,2.20
2024-02-13T12:36:46.352Z,2.25
2024-02-13T12:39:18.012Z,2.47
2024-02-13T12:41:48.453Z,2.15
2024-02-13T12:44:16.723Z,2.53
2024-02-13T12:46:47.132Z,2.40
2024-02-13T12:49:17.817Z,2.10
2024-02-13T12:51:46.030Z,2.10
2024-02-13T12:54:15.477Z,1.98
2024-02-13T12:56:43.488Z,2.42
2024-02-13T12:59:13.795Z,2.33
2024-02-13T13:01:45.901Z,2.20
2024-02-13T13:04:15.263Z,2.55
2024-02-13T13:06:45.515Z,2.38
2024-02-13T13:09:23.225Z,2.47
2024-02-13T13:11:56.017Z,2.17
2024-02-13T13:14:27.858Z,1.92
2024-02-13T13:16:57.654Z,2.35
2024-02-13T13:19:28.634Z,1.90
2024-02-13T13:21:57.455Z,1.92
2024-02-13T13:24:25.754Z,1.80
2024-02-13T13:26:56.178Z,1.75
2024-02-13T13:29:25.881Z,2.10
2024-02-13T13:31:53.867Z,1.90
2024-02-13T13:34:25.195Z,2.15
2024-02-13T13:36:54.503Z,1.80
2024-02-13T13:39:29.532Z,1.77
2024-02-13T13:41:58.889Z,1.52
2024-02-13T13:44:28.913Z,1.80
2024-02-13T13:46:56.839Z,1.80
2024-02-13T13:49:25.935Z,1.85
2024-02-13T13:51:53.761Z,1.67
2024-02-13T13:54:23.208Z,1.70
2024-02-13T13:56:51.338Z,1.80
2024-02-13T13:59:19.519Z,2.10
2024-02-13T14:01:48.759Z,1.80
2024-02-13T14:04:16.712Z,1.90
2024-02-13T14:06:44.991Z,1.77
2024-02-13T14:09:12.791Z,2.00
2024-02-13T14:11:41.170Z,1.70
2024-02-13T14:14:10.004Z,1.63
2024-02-13T14:16:37.800Z,1.98
2024-02-13T14:19:07.790Z,2.20
2024-02-13T14:21:37.714Z,1.77
2024-02-13T14:24:08.917Z,1.65
2024-02-13T14:26:36.734Z,1.77
2024-02-13T14:29:05.247Z,1.80
2024-02-13T14:31:33.154Z,1.92
2024-02-13T14:34:01.215Z,1.90
2024-02-13T14:36:30.475Z,2.05
2024-02-13T14:38:58.599Z,2.22
2024-02-13T14:41:26.557Z,2.00
2024-02-13T14:43:55.021Z,1.90
2024-02-13T14:46:23.053Z,1.30
2024-02-13T14:48:51.113Z,1.90
2024-02-13T14:51:19.836Z,1.60
2024-02-13T14:53:50.283Z,1.65
2024-02-13T14:56:18.464Z,1.70
2024-02-13T14:58:46.909Z,1.80
2024-02-13T15:01:14.861Z,2.08
2024-02-13T15:03:43.567Z,2.03
2024-02-13T15:06:11.533Z,1.70
2024-02-13T15:08:41.140Z,1.60
2024-02-13T15:11:12.065Z,1.65
2024-02-13T15:13:40.489Z,1.88
2024-02-13T15:16:08.926Z,1.90
2024-02-13T15:18:38.122Z,1.40
2024-02-13T15:21:07.256Z,1.30
2024-02-13T15:23:35.186Z,1.33
2024-02-13T15:26:05.940Z,1.42
2024-02-13T15:28:36.537Z,1.33
2024-02-13T15:31:05.418Z,1.40
2024-02-13T15:33:33.700Z,1.50
2024-02-13T15:36:06.088Z,1.23
2024-02-13T15:38:51.823Z,1.70
2024-02-13T15:41:37.823Z,1.55
2024-02-13T15:44:33.353Z,1.70
2024-02-13T15:47:04.969Z,1.60
2024-02-13T15:49:33.515Z,1.70
2024-02-13T15:52:02.105Z,1.50
2024-02-13T15:54:31.784Z,1.60
2024-02-13T15:56:59.789Z,1.67
2024-02-13T15:59:30.580Z,1.50
2024-02-13T16:01:59.317Z,1.63
2024-02-13T16:04:27.461Z,1.67
2024-02-13T16:06:56.835Z,1.60
2024-02-13T16:09:26.961Z,1.48
2024-02-13T16:11:54.901Z,1.65
2024-02-13T16:14:22.874Z,1.52
2024-02-13T16:16:52.121Z,1.83
2024-02-13T16:19:20.059Z,1.45
2024-02-13T16:21:47.962Z,1.77
2024-02-13T16:24:16.160Z,1.77
2024-02-13T16:26:44.855Z,1.90
2024-02-13T16:29:12.688Z,1.73
2024-02-13T16:31:40.479Z,1.80
2024-02-13T16:34:09.872Z,1.90
2024-02-13T16:36:37.938Z,1.75
2024-02-13T16:39:06.218Z,1.88
2024-02-13T16:41:34.157Z,1.83
2024-02-13T16:44:02.075Z,1.60
2024-02-13T16:46:33.549Z,1.42
2024-02-13T16:49:01.890Z,1.88
2024-02-13T16:51:32.608Z,2.00
2024-02-13T16:54:00.653Z,1.70
2024-02-13T16:56:28.548Z,2.10
2024-02-13T16:58:57.249Z,2.47
2024-02-13T17:01:25.489Z,2.20
2024-02-13T17:03:54.977Z,2.00
2024-02-13T17:06:23.157Z,2.30
2024-02-13T17:08:52.606Z,2.10
2024-02-13T17:11:21.335Z,2.35
2024-02-13T17:13:49.242Z,2.30
2024-02-13T17:16:17.936Z,1.80
2024-02-13T17:18:45.985Z,1.92
2024-02-13T17:21:14.007Z,2.13
2024-02-13T17:23:41.925Z,2.50
2024-02-13T17:26:11.161Z,1.98
2024-02-13T17:28:39.881Z,2.15
2024-02-13T17:31:07.678Z,2.28
2024-02-13T17:33:36.173Z,2.03
2024-02-13T17:36:04.872Z,1.98
2024-02-13T17:38:35.913Z,2.28
2024-02-13T17:41:05.923Z,2.00
2024-02-13T17:43:35.549Z,2.45
2024-02-13T17:46:03.384Z,2.20
2024-02-13T17:48:31.870Z,1.80
2024-02-13T17:50:59.894Z,2.08
2024-02-13T17:53:27.755Z,2.00
2024-02-13T17:55:56.151Z,1.90
2024-02-13T17:58:23.935Z,2.28
2024-02-13T18:00:54.168Z,1.95
2024-02-13T18:03:22.129Z,2.00
2024-02-13T18:05:50.887Z,2.22
2024-02-13T18:08:19.215Z,1.98
2024-02-13T18:10:47.099Z,1.90
2024-02-13T18:13:15.071Z,1.90
2024-02-13T18:15:43.057Z,1.90
2024-02-13T18:18:12.801Z,2.13
2024-02-13T18:20:42.973Z,1.98
2024-02-13T18:23:11.394Z,2.20
2024-02-13T18:25:39.240Z,2.03
2024-02-13T18:28:07.832Z,2.17
2024-02-13T18:30:35.901Z,2.30
2024-02-13T18:33:04.563Z,2.63
2024-02-13T18:35:33.955Z,2.10
2024-02-13T18:38:01.830Z,2.40
2024-02-13T18:40:29.746Z,2.20
2024-02-13T18:42:57.991Z,2.40
2024-02-13T18:45:28.012Z,2.38
2024-02-13T18:47:55.927Z,2.58
2024-02-13T18:50:23.844Z,2.70
2024-02-13T18:52:53.339Z,2.50
2024-02-13T18:55:22.138Z,2.17
2024-02-13T18:57:52.740Z,2.15
2024-02-13T19:00:20.611Z,2.22
2024-02-13T19:02:49.834Z,2.50
2024-02-13T19:05:18.574Z,2.88
2024-02-13T19:07:46.730Z,2.78
2024-02-13T19:10:15.953Z,2.28
2024-02-13T19:12:44.267Z,2.70
2024-02-13T19:15:16.241Z,2.53
2024-02-13T19:17:44.596Z,2.47
2024-02-13T19:20:14.943Z,2.85
2024-02-13T19:22:42.839Z,2.90
2024-02-13T19:25:10.853Z,3.30
2024-02-13T19:27:40.337Z,2.72
2024-02-13T19:30:11.397Z,2.83
2024-02-13T19:32:40.949Z,2.90
2024-02-13T19:35:10.634Z,2.83
2024-02-13T19:37:38.544Z,2.65
2024-02-13T19:40:08.314Z,2.47
2024-02-13T19:42:36.446Z,2.67
2024-02-13T19:45:06.635Z,2.30
2024-02-13T19:47:35.727Z,2.60
2024-02-13T19:50:03.922Z,2.30
2024-02-13T19:52:31.840Z,2.55
2024-02-13T19:54:59.675Z,2.40
2024-02-13T19:57:28.181Z,2.08
2024-02-13T19:59:56.321Z,2.42
2024-02-13T20:02:26.678Z,3.05
2024-02-13T20:04:58.403Z,2.63
2024-02-13T20:07:26.501Z,2.05
2024-02-13T20:09:55.595Z,2.20
2024-02-13T20:12:25.610Z,2.15
2024-02-13T20:14:53.912Z,2.63
2024-02-13T20:17:22.043Z,2.50
2024-02-13T20:19:51.615Z,2.10
2024-02-13T20:22:20.518Z,2.17
2024-02-13T20:24:48.835Z,2.45
2024-02-13T20:27:16.672Z,2.10
2024-02-13T20:29:45.085Z,2.20
2024-02-13T20:32:15.228Z,2.03
2024-02-13T20:34:43.960Z,2.75
2024-02-13T20:37:15.660Z,2.40
2024-02-13T20:39:43.591Z,2.30
2024-02-13T20:42:11.429Z,2.47
2024-02-13T20:44:40.561Z,2.50
2024-02-13T20:47:08.500Z,2.30
2024-02-13T20:52:05.866Z,2.35
2024-02-13T20:54:35.081Z,2.40
2024-02-13T20:57:02.930Z,2.10
2024-02-13T20:59:31.248Z,2.47
2024-02-13T21:02:02.660Z,2.20
2024-02-13T21:04:30.863Z,2.28
2024-02-13T21:07:00.880Z,2.20
2024-02-13T21:09:28.729Z,2.03
2024-02-13T21:11:57.882Z,2.00
2024-02-13T21:14:27.264Z,2.03
2024-02-13T21:16:55.085Z,2.50
2024-02-13T21:19:23.827Z,2.38
2024-02-13T21:22:09.322Z,2.42
2024-02-13T21:24:37.169Z,2.33
2024-02-13T21:27:06.864Z,2.15
2024-02-13T21:29:34.925Z,2.42
2024-02-13T21:32:04.178Z,2.90
2024-02-13T21:34:32.188Z,2.58
2024-02-13T21:37:00.094Z,2.42
2024-02-13T21:39:28.443Z,2.40
2024-02-13T21:41:56.306Z,2.72
2024-02-13T21:44:26.936Z,2.47
2024-02-13T21:46:56.641Z,2.35
2024-02-13T21:49:25.236Z,2.40
2024-02-13T21:51:53.984Z,2.78
2024-02-13T21:54:21.970Z,2.80
2024-02-13T21:56:50.547Z,2.75
2024-02-13T21:59:18.433Z,2.60
2024-02-13T22:01:47.557Z,2.53
2024-02-13T22:04:16.069Z,3.08
2024-02-13T22:06:44.501Z,2.67
2024-02-13T22:09:13.425Z,2.40
2024-02-13T22:11:43.068Z,2.75
2024-02-13T22:14:11.539Z,2.65
2024-02-13T22:16:39.319Z,2.45
2024-02-13T22:19:08.702Z,3.22
2024-02-13T22:21:36.803Z,2.97
2024-02-13T22:24:07.513Z,3.10
2024-02-13T22:26:39.266Z,3.13
2024-02-13T22:29:08.513Z,2.85
2024-02-13T22:31:36.792Z,2.90
2024-02-13T22:34:07.076Z,2.97
2024-02-13T22:36:36.514Z,2.83
2024-02-13T22:39:04.534Z,2.92
2024-02-13T22:41:32.575Z,2.80
2024-02-13T22:44:01.396Z,2.75
2024-02-13T22:46:29.188Z,3.28
2024-02-13T22:48:57.122Z,3.33
2024-02-13T22:51:25.119Z,3.17
2024-02-13T22:53:54.342Z,3.28
2024-02-13T22:56:22.473Z,3.25
2024-02-13T22:58:51.734Z,3.03
2024-02-13T23:01:19.577Z,3.20
2024-02-13T23:03:47.969Z,3.88
2024-02-13T23:06:16.159Z,3.97
2024-02-13T23:08:44.166Z,3.75
2024-02-13T23:11:13.440Z,4.30
2024-02-13T23:13:45.729Z,3.47
2024-02-13T23:16:17.853Z,3.90
2024-02-13T23:18:45.882Z,3.58
2024-02-13T23:21:14.023Z,3.60
2024-02-13T23:23:42.003Z,3.40
2024-02-13T23:26:10.089Z,3.50
2024-02-13T23:28:48.712Z,3.70
2024-02-13T23:31:24.144Z,3.78
2024-02-13T23:33:52.127Z,3.85
2024-02-13T23:36:20.120Z,3.60
2024-02-13T23:38:48.520Z,3.75
2024-02-13T23:41:17.135Z,3.90
2024-02-13T23:43:46.765Z,3.60
2024-02-13T23:46:14.607Z,3.63
2024-02-13T23:48:42.676Z,3.92
2024-02-13T23:51:10.956Z,3.97
2024-02-13T23:53:38.898Z,3.55
2024-02-13T23:56:07.784Z,3.58
2024-02-13T23:58:35.730Z,3.30
